Superfun — ZCCL5 — position and weather

sailwx.info

Track history (hours):
 
Tides and Currents Weather Stations Pressure Air Temp Water Temp Dewpoint Dewpoint Depression Visibility Wind Speed Wind Dir Waves Ship Positions

Superfun

Last reported at 2017-Aug-23 11:30 UTC. Time now 2017-Aug-23 11:51 UTC.
Position N 44°03' E 009°51'.

Length 40 m.

Type: Other ship. MMSI: 319163000.

Date/timePositionNaut miles runAvg speedWind from/ knotsBaromVisibWave heightAir tempDewpointWater temp
2017-Aug-23 11:30N 44°03' E 009°51'0 0.0
2017-Aug-23 11:00N 44°03' E 009°51'0 0.0
2017-Aug-23 10:30N 44°03' E 009°51'0 0.0
2017-Aug-23 10:00N 44°03' E 009°51'0 0.0
2017-Aug-23 09:30N 44°03' E 009°51'0 0.1
2017-Aug-23 09:00N 44°03' E 009°51'0 0.0
2017-Aug-23 08:30N 44°03' E 009°51'0 0.0
2017-Aug-23 08:00N 44°03' E 009°51'0 0.0
2017-Aug-23 07:30N 44°03' E 009°51'0 0.0
2017-Aug-23 07:00N 44°03' E 009°51'0 0.0
2017-Aug-23 06:30N 44°03' E 009°51'0 0.0
2017-Aug-23 06:00N 44°03' E 009°51'0 0.0
2017-Aug-23 05:30N 44°03' E 009°51'0 0.0
2017-Aug-23 05:00N 44°03' E 009°51'0 0.0
2017-Aug-23 04:30N 44°03' E 009°51'0 0.0
2017-Aug-23 03:58N 44°03' E 009°51'0 0.0
2017-Aug-23 03:28N 44°03' E 009°51'0 0.0
2017-Aug-23 02:58N 44°03' E 009°51'0 0.0
2017-Aug-23 02:28N 44°03' E 009°51'0 0.0
2017-Aug-23 01:58N 44°03' E 009°51'0 0.0
2017-Aug-23 01:25N 44°03' E 009°51'0 0.0
2017-Aug-23 00:55N 44°03' E 009°51'0 0.0
2017-Aug-23 00:28N 44°03' E 009°51'0 0.0
2017-Aug-22 23:58N 44°03' E 009°51'0 0.0
2017-Aug-22 23:28N 44°03' E 009°51'2 4.8
2017-Aug-22 23:00N 44°02' E 009°53'5 9.5
2017-Aug-22 22:28N 43°57' E 009°56'4 9.3
2017-Aug-22 22:00N 43°53' E 009°59'5 9.5
2017-Aug-22 21:30N 43°49' E 010°01'5 9.3
2017-Aug-22 21:00N 43°44' E 010°03'5 9.3
2017-Aug-22 20:30N 43°40' E 010°05'5 9.2
2017-Aug-22 20:00N 43°36' E 010°08'5 9.3
2017-Aug-22 19:30N 43°31' E 010°10'5 9.3
2017-Aug-22 19:00N 43°28' E 010°15'5 9.2
2017-Aug-22 18:30N 43°25' E 010°20'5 9.3
2017-Aug-22 18:00N 43°21' E 010°23'4 8.4
2017-Aug-22 17:30N 43°18' E 010°26'2 2.1
2017-Aug-22 16:45N 43°18' E 010°29'0 0.0
2017-Aug-22 16:27N 43°18' E 010°29'0 0.0
2017-Aug-22 15:51N 43°18' E 010°29'0 0.0
2017-Aug-22 15:24N 43°18' E 010°29'0 0.0
2017-Aug-22 14:54N 43°18' E 010°29'0 0.0
2017-Aug-22 13:45N 43°18' E 010°29'0 0.0
2017-Aug-22 13:30N 43°18' E 010°29'0 0.0
2017-Aug-22 13:00N 43°18' E 010°29'0 0.0
2017-Aug-22 12:30N 43°18' E 010°29'3 6.8
2017-Aug-22 12:00N 43°15' E 010°30'27 0.7
2017-Aug-20 19:09N 42°47' E 010°27'9 1.3
2017-Aug-20 12:20N 42°51' E 010°15'3 9.5
2017-Aug-20 12:00N 42°50' E 010°11'  
Track history (hours):
 
Tides and Currents Weather Stations Pressure Air Temp Water Temp Dewpoint Dewpoint Depression Visibility Wind Speed Wind Dir Waves Ship Positions

Superfun

Last reported at 2017-Aug-23 11:30 UTC. Time now 2017-Aug-23 11:51 UTC.
Position N 44°03' E 009°51'.

Length 40 m.

Type: Other ship. MMSI: 319163000.

Date/timePositionNaut miles runAvg speedWind from/ knotsBaromVisibWave heightAir tempDewpointWater temp
2017-Aug-23 11:30N 44°03' E 009°51'0 0.0
2017-Aug-23 11:00N 44°03' E 009°51'0 0.0
2017-Aug-23 10:30N 44°03' E 009°51'0 0.0
2017-Aug-23 10:00N 44°03' E 009°51'0 0.0
2017-Aug-23 09:30N 44°03' E 009°51'0 0.1
2017-Aug-23 09:00N 44°03' E 009°51'0 0.0
2017-Aug-23 08:30N 44°03' E 009°51'0 0.0
2017-Aug-23 08:00N 44°03' E 009°51'0 0.0
2017-Aug-23 07:30N 44°03' E 009°51'0 0.0
2017-Aug-23 07:00N 44°03' E 009°51'0 0.0
2017-Aug-23 06:30N 44°03' E 009°51'0 0.0
2017-Aug-23 06:00N 44°03' E 009°51'0 0.0
2017-Aug-23 05:30N 44°03' E 009°51'0 0.0
2017-Aug-23 05:00N 44°03' E 009°51'0 0.0
2017-Aug-23 04:30N 44°03' E 009°51'0 0.0
2017-Aug-23 03:58N 44°03' E 009°51'0 0.0
2017-Aug-23 03:28N 44°03' E 009°51'0 0.0
2017-Aug-23 02:58N 44°03' E 009°51'0 0.0
2017-Aug-23 02:28N 44°03' E 009°51'0 0.0
2017-Aug-23 01:58N 44°03' E 009°51'0 0.0
2017-Aug-23 01:25N 44°03' E 009°51'0 0.0
2017-Aug-23 00:55N 44°03' E 009°51'0 0.0
2017-Aug-23 00:28N 44°03' E 009°51'0 0.0
2017-Aug-22 23:58N 44°03' E 009°51'0 0.0
2017-Aug-22 23:28N 44°03' E 009°51'2 4.8
2017-Aug-22 23:00N 44°02' E 009°53'5 9.5
2017-Aug-22 22:28N 43°57' E 009°56'4 9.3
2017-Aug-22 22:00N 43°53' E 009°59'5 9.5
2017-Aug-22 21:30N 43°49' E 010°01'5 9.3
2017-Aug-22 21:00N 43°44' E 010°03'5 9.3
2017-Aug-22 20:30N 43°40' E 010°05'5 9.2
2017-Aug-22 20:00N 43°36' E 010°08'5 9.3
2017-Aug-22 19:30N 43°31' E 010°10'5 9.3
2017-Aug-22 19:00N 43°28' E 010°15'5 9.2
2017-Aug-22 18:30N 43°25' E 010°20'5 9.3
2017-Aug-22 18:00N 43°21' E 010°23'4 8.4
2017-Aug-22 17:30N 43°18' E 010°26'2 2.1
2017-Aug-22 16:45N 43°18' E 010°29'0 0.0
2017-Aug-22 16:27N 43°18' E 010°29'0 0.0
2017-Aug-22 15:51N 43°18' E 010°29'0 0.0
2017-Aug-22 15:24N 43°18' E 010°29'0 0.0
2017-Aug-22 14:54N 43°18' E 010°29'0 0.0
2017-Aug-22 13:45N 43°18' E 010°29'0 0.0
2017-Aug-22 13:30N 43°18' E 010°29'0 0.0
2017-Aug-22 13:00N 43°18' E 010°29'0 0.0
2017-Aug-22 12:30N 43°18' E 010°29'3 6.8
2017-Aug-22 12:00N 43°15' E 010°30'27 0.7
2017-Aug-20 19:09N 42°47' E 010°27'9 1.3
2017-Aug-20 12:20N 42°51' E 010°15'3 9.5
2017-Aug-20 12:00N 42°50' E 010°11'  

Dump ship's entire track history